createdAt,value
2022-10-18T00:02:15.109Z,10.66
2022-10-18T00:04:41.791Z,10.63
2022-10-18T00:07:08.404Z,10.61
2022-10-18T00:09:35.037Z,10.60
2022-10-18T00:12:01.678Z,10.59
2022-10-18T00:14:28.359Z,10.58
2022-10-18T00:16:54.980Z,10.56
2022-10-18T00:19:25.828Z,10.56
2022-10-18T00:21:55.141Z,10.54
2022-10-18T00:24:21.795Z,10.53
2022-10-18T00:26:48.501Z,10.55
2022-10-18T00:29:16.275Z,10.55
2022-10-18T00:31:44.113Z,10.57
2022-10-18T00:34:13.952Z,10.55
2022-10-18T00:36:41.368Z,10.50
2022-10-18T00:39:09.509Z,10.46
2022-10-18T00:41:38.115Z,10.43
2022-10-18T00:44:10.757Z,10.42
2022-10-18T00:46:40.342Z,10.40
2022-10-18T00:49:13.005Z,10.36
2022-10-18T00:51:51.545Z,10.32
2022-10-18T00:54:20.761Z,10.36
2022-10-18T00:56:47.424Z,10.30
2022-10-18T00:59:15.964Z,10.29
2022-10-18T01:01:43.250Z,10.22
2022-10-18T01:04:10.391Z,10.19
2022-10-18T01:09:52.638Z,10.16
2022-10-18T01:12:33.073Z,10.09
2022-10-18T01:15:10.655Z,10.04
2022-10-18T01:17:43.409Z,10.00
2022-10-18T01:20:28.464Z,9.90
2022-10-18T01:23:23.070Z,9.88
2022-10-18T01:26:11.073Z,9.86
2022-10-18T01:28:56.061Z,9.87
2022-10-18T01:31:39.915Z,9.85
2022-10-18T01:34:10.264Z,9.83
2022-10-18T01:36:46.300Z,9.82
2022-10-18T01:39:19.912Z,9.78
2022-10-18T01:41:49.298Z,9.74
2022-10-18T01:44:21.409Z,9.69
2022-10-18T01:46:49.123Z,9.77
2022-10-18T01:49:15.838Z,9.75
2022-10-18T01:51:42.464Z,9.72
2022-10-18T01:54:11.792Z,9.67
2022-10-18T01:56:58.697Z,9.70
2022-10-18T02:00:06.417Z,9.70
2022-10-18T02:02:57.898Z,9.62
2022-10-18T02:05:41.622Z,9.63
2022-10-18T02:08:22.958Z,9.59
2022-10-18T02:11:03.854Z,9.57
2022-10-18T02:13:36.178Z,9.51
2022-10-18T02:16:10.129Z,9.55
2022-10-18T02:18:41.808Z,9.53
2022-10-18T02:21:13.723Z,9.53
2022-10-18T02:23:40.396Z,9.53
2022-10-18T02:26:07.249Z,9.49
2022-10-18T02:28:33.916Z,9.48
2022-10-18T02:31:38.903Z,9.45
2022-10-18T02:34:21.616Z,9.44
2022-10-18T02:36:58.274Z,9.43
2022-10-18T02:39:32.260Z,9.32
2022-10-18T02:41:59.832Z,9.26
2022-10-18T02:44:26.671Z,9.27
2022-10-18T02:46:53.589Z,9.26
2022-10-18T02:49:20.206Z,9.25
2022-10-18T02:51:46.804Z,9.25
2022-10-18T02:54:13.531Z,9.25
2022-10-18T02:56:40.184Z,9.24
2022-10-18T02:59:07.576Z,9.23
2022-10-18T03:01:36.375Z,9.23
2022-10-18T03:04:04.112Z,9.21
2022-10-18T03:06:31.340Z,9.22
2022-10-18T03:08:57.976Z,9.24
2022-10-18T03:11:24.728Z,9.26
2022-10-18T03:13:51.448Z,9.24
2022-10-18T03:16:18.576Z,9.16
2022-10-18T03:18:45.205Z,9.13
2022-10-18T03:21:11.915Z,9.11
2022-10-18T03:23:38.655Z,9.09
2022-10-18T03:26:05.422Z,9.09
2022-10-18T03:28:32.057Z,9.10
2022-10-18T03:31:02.561Z,9.06
2022-10-18T03:33:29.991Z,9.05
2022-10-18T03:35:56.693Z,9.05
2022-10-18T03:38:23.680Z,9.00
2022-10-18T03:40:50.469Z,8.96
2022-10-18T03:43:17.107Z,8.97
2022-10-18T03:45:43.888Z,8.92
2022-10-18T03:48:10.565Z,8.93
2022-10-18T03:50:37.197Z,8.93
2022-10-18T03:53:04.076Z,8.88
2022-10-18T03:55:30.708Z,8.85
2022-10-18T03:57:57.330Z,8.86
2022-10-18T04:00:24.021Z,8.84
2022-10-18T04:02:53.351Z,8.84
2022-10-18T04:05:24.240Z,8.86
2022-10-18T04:07:50.931Z,8.84
2022-10-18T04:10:18.795Z,8.84
2022-10-18T04:12:45.647Z,8.84
2022-10-18T04:15:12.466Z,8.82
2022-10-18T04:17:39.134Z,8.81
2022-10-18T04:20:06.378Z,8.83
2022-10-18T04:22:32.967Z,8.81
2022-10-18T04:24:59.755Z,8.82
2022-10-18T04:27:26.810Z,8.81
2022-10-18T04:29:53.405Z,8.81
2022-10-18T04:32:20.018Z,8.76
2022-10-18T04:34:46.668Z,8.74
2022-10-18T04:37:13.355Z,8.74
2022-10-18T04:39:39.993Z,8.72
2022-10-18T04:42:06.650Z,8.71
2022-10-18T04:44:34.504Z,8.71
2022-10-18T04:47:01.098Z,8.72
2022-10-18T04:49:27.733Z,8.74
2022-10-18T04:51:54.378Z,8.74
2022-10-18T04:54:22.789Z,8.74
2022-10-18T04:56:51.781Z,8.71
2022-10-18T04:59:18.458Z,8.71
2022-10-18T05:01:45.255Z,8.68
2022-10-18T05:04:12.245Z,8.67
2022-10-18T05:06:38.864Z,8.67
2022-10-18T05:09:06.451Z,8.66
2022-10-18T05:11:33.118Z,8.66
2022-10-18T05:13:59.785Z,8.64
2022-10-18T05:16:28.430Z,8.66
2022-10-18T05:18:55.139Z,8.64
2022-10-18T05:21:21.864Z,8.62
2022-10-18T05:23:48.494Z,8.61
2022-10-18T05:26:15.108Z,8.57
2022-10-18T05:28:41.782Z,8.48
2022-10-18T05:31:10.211Z,8.46
2022-10-18T05:33:36.981Z,8.47
2022-10-18T05:36:04.607Z,8.50
2022-10-18T05:38:31.490Z,8.55
2022-10-18T05:40:59.258Z,8.56
2022-10-18T05:43:29.162Z,8.56
2022-10-18T05:45:56.246Z,8.60
2022-10-18T05:48:22.958Z,8.67
2022-10-18T05:50:49.638Z,8.70
2022-10-18T05:53:35.729Z,8.75
2022-10-18T05:56:03.976Z,8.76
2022-10-18T05:58:30.585Z,8.81
2022-10-18T06:01:05.098Z,8.82
2022-10-18T06:03:32.152Z,8.86
2022-10-18T06:06:09.547Z,8.91
2022-10-18T06:08:36.702Z,8.94
2022-10-18T06:11:11.378Z,8.97
2022-10-18T06:13:45.245Z,8.95
2022-10-18T06:16:13.197Z,9.16
2022-10-18T06:18:40.630Z,9.53
2022-10-18T06:21:08.207Z,9.88
2022-10-18T06:23:35.636Z,10.01
2022-10-18T06:26:04.977Z,10.19
2022-10-18T06:28:34.141Z,10.16
2022-10-18T06:31:00.891Z,10.34
2022-10-18T06:33:27.642Z,10.53
2022-10-18T06:35:59.869Z,10.53
2022-10-18T06:38:27.964Z,10.55
2022-10-18T06:40:55.603Z,10.63
2022-10-18T06:43:22.742Z,10.67
2022-10-18T06:45:50.323Z,10.59
2022-10-18T06:51:00.713Z,10.54
2022-10-18T06:53:30.700Z,10.48
2022-10-18T06:56:05.166Z,10.58
2022-10-18T06:58:32.630Z,10.76
2022-10-18T07:00:59.895Z,10.98
2022-10-18T07:03:27.336Z,11.07
2022-10-18T07:05:54.002Z,11.29
2022-10-18T07:08:20.618Z,11.39
2022-10-18T07:10:53.729Z,11.48
2022-10-18T07:13:31.966Z,11.62
2022-10-18T07:16:06.031Z,11.79
2022-10-18T07:18:37.522Z,11.99
2022-10-18T07:21:06.329Z,12.32
2022-10-18T07:23:34.580Z,12.56
2022-10-18T07:26:02.102Z,12.88
2022-10-18T07:28:29.544Z,13.08
2022-10-18T07:30:56.768Z,13.15
2022-10-18T07:33:24.753Z,13.33
2022-10-18T07:35:51.438Z,13.35
2022-10-18T07:38:18.037Z,13.42
2022-10-18T07:40:44.639Z,13.70
2022-10-18T07:43:12.418Z,13.87
2022-10-18T07:45:39.068Z,13.93
2022-10-18T07:48:05.952Z,14.27
2022-10-18T07:50:32.560Z,14.35
2022-10-18T07:52:59.153Z,14.44
2022-10-18T07:55:25.807Z,14.56
2022-10-18T07:57:52.401Z,14.93
2022-10-18T08:00:19.030Z,15.37
2022-10-18T08:02:45.638Z,15.54
2022-10-18T08:05:12.224Z,15.68
2022-10-18T08:07:38.860Z,15.57
2022-10-18T08:10:05.891Z,15.64
2022-10-18T08:12:32.786Z,15.63
2022-10-18T08:14:59.414Z,15.69
2022-10-18T08:17:25.984Z,15.81
2022-10-18T08:20:04.819Z,16.06
2022-10-18T08:22:38.647Z,16.25
2022-10-18T08:25:05.702Z,16.42
2022-10-18T08:27:32.452Z,16.66
2022-10-18T08:30:01.806Z,16.94
2022-10-18T08:32:29.371Z,17.07
2022-10-18T08:34:56.150Z,17.15
2022-10-18T08:37:23.176Z,17.23
2022-10-18T08:39:50.061Z,17.32
2022-10-18T08:42:19.301Z,17.40
2022-10-18T08:44:48.727Z,17.57
2022-10-18T08:47:31.188Z,17.77
2022-10-18T08:50:04.464Z,17.92
2022-10-18T08:52:59.281Z,18.03
2022-10-18T08:55:31.064Z,18.17
2022-10-18T08:57:58.502Z,18.11
2022-10-18T09:00:30.667Z,18.10
2022-10-18T09:03:29.634Z,18.20
2022-10-18T09:06:09.580Z,18.23
2022-10-18T09:08:57.466Z,18.37
2022-10-18T09:11:36.765Z,18.47
2022-10-18T09:14:18.634Z,18.54
2022-10-18T09:17:15.825Z,18.65
2022-10-18T09:19:45.859Z,18.80
2022-10-18T09:22:18.929Z,18.76
2022-10-18T09:25:11.678Z,18.76
2022-10-18T09:28:03.720Z,18.79
2022-10-18T09:30:59.574Z,18.76
2022-10-18T09:33:36.194Z,18.92
2022-10-18T09:36:05.975Z,18.83
2022-10-18T09:38:40.491Z,18.80
2022-10-18T09:41:48.361Z,18.97
2022-10-18T09:44:24.117Z,18.85
2022-10-18T09:47:17.944Z,18.94
2022-10-18T09:49:49.081Z,19.06
2022-10-18T09:52:28.411Z,19.25
2022-10-18T09:55:01.281Z,19.34
2022-10-18T09:57:32.784Z,19.48
2022-10-18T10:00:01.551Z,19.58
2022-10-18T10:02:28.252Z,19.73
2022-10-18T10:04:55.769Z,19.80
2022-10-18T10:07:29.924Z,19.89
2022-10-18T10:10:13.963Z,20.09
2022-10-18T10:12:41.231Z,20.10
2022-10-18T10:15:22.770Z,20.14
2022-10-18T10:18:07.069Z,20.19
2022-10-18T10:20:49.018Z,20.15
2022-10-18T10:23:21.493Z,20.14
2022-10-18T10:25:57.369Z,20.11
2022-10-18T10:28:28.730Z,20.20
2022-10-18T10:31:15.314Z,20.12
2022-10-18T10:33:46.933Z,20.40
2022-10-18T10:36:21.294Z,20.60
2022-10-18T10:39:21.012Z,20.72
2022-10-18T10:41:50.722Z,20.70
2022-10-18T10:44:20.247Z,20.35
2022-10-18T10:46:49.704Z,20.54
2022-10-18T10:49:40.725Z,20.41
2022-10-18T10:52:28.394Z,20.32
2022-10-18T10:55:30.915Z,20.30
2022-10-18T10:57:50.239Z,20.16
2022-10-18T11:00:39.506Z,20.14
2022-10-18T11:03:28.608Z,20.21
2022-10-18T11:05:58.059Z,20.13
2022-10-18T11:08:28.271Z,20.08
2022-10-18T11:11:26.415Z,20.07
2022-10-18T11:14:25.820Z,20.12
2022-10-18T11:17:15.679Z,20.11
2022-10-18T11:19:56.008Z,20.17
2022-10-18T11:22:25.983Z,20.14
2022-10-18T11:24:52.634Z,20.14
2022-10-18T11:27:31.146Z,20.17
2022-10-18T11:30:24.942Z,20.14
2022-10-18T11:33:04.653Z,20.15
2022-10-18T11:35:33.991Z,20.08
2022-10-18T11:38:26.999Z,19.98
2022-10-18T11:41:11.888Z,19.88
2022-10-18T11:44:02.318Z,19.83
2022-10-18T11:46:48.019Z,19.80
2022-10-18T11:49:41.013Z,19.68
2022-10-18T11:52:17.927Z,19.55
2022-10-18T11:55:05.552Z,19.47
2022-10-18T11:57:56.871Z,19.33
2022-10-18T12:00:49.279Z,19.30
2022-10-18T12:03:54.567Z,19.22
2022-10-18T12:06:24.354Z,19.17
2022-10-18T12:08:55.945Z,19.24
2022-10-18T12:11:46.877Z,19.18
2022-10-18T12:14:39.064Z,19.15
2022-10-18T12:20:30.213Z,19.11
2022-10-18T12:23:09.420Z,19.06
2022-10-18T12:25:40.619Z,19.12
2022-10-18T12:28:33.914Z,19.04
2022-10-18T12:31:12.477Z,18.96
2022-10-18T12:33:45.326Z,18.87
2022-10-18T12:36:37.934Z,18.81
2022-10-18T12:39:10.882Z,18.83
2022-10-18T12:41:37.743Z,18.76
2022-10-18T12:44:07.021Z,18.68
2022-10-18T12:46:52.056Z,18.62
2022-10-18T12:49:29.695Z,18.56
2022-10-18T12:52:00.364Z,18.46
2022-10-18T12:54:30.715Z,18.38
2022-10-18T12:56:59.985Z,18.31
2022-10-18T12:59:26.919Z,18.35
2022-10-18T13:01:53.590Z,18.32
2022-10-18T13:04:35.472Z,18.23
2022-10-18T13:07:05.215Z,18.11
2022-10-18T13:09:37.007Z,18.00
2022-10-18T13:12:09.376Z,17.91
2022-10-18T13:15:05.867Z,17.90
2022-10-18T13:17:47.944Z,17.90
2022-10-18T13:20:37.085Z,17.84
2022-10-18T13:23:33.881Z,17.72
2022-10-18T13:26:19.397Z,17.69
2022-10-18T13:29:06.017Z,17.68
2022-10-18T13:31:41.992Z,17.55
2022-10-18T13:34:35.370Z,17.49
2022-10-18T13:37:10.956Z,17.37
2022-10-18T13:39:39.891Z,17.32
2022-10-18T13:42:15.408Z,17.31
2022-10-18T13:44:44.722Z,17.25
2022-10-18T13:47:16.619Z,17.22
2022-10-18T13:50:11.493Z,17.16
2022-10-18T13:52:43.902Z,16.98
2022-10-18T13:55:35.019Z,16.87
2022-10-18T13:58:04.751Z,16.89
2022-10-18T14:00:51.901Z,16.81
2022-10-18T14:03:57.991Z,16.70
2022-10-18T14:06:42.429Z,16.65
2022-10-18T14:09:26.296Z,16.65
2022-10-18T14:12:20.412Z,16.69
2022-10-18T14:14:56.193Z,16.56
2022-10-18T14:20:19.251Z,16.47
2022-10-18T14:23:02.652Z,16.50
2022-10-18T14:25:32.807Z,16.52
2022-10-18T14:28:11.525Z,16.41
2022-10-18T14:31:08.496Z,16.41
2022-10-18T14:33:45.496Z,16.32
2022-10-18T14:36:18.220Z,16.27
2022-10-18T14:38:52.091Z,16.30
2022-10-18T14:41:21.902Z,16.20
2022-10-18T14:43:49.401Z,16.13
2022-10-18T14:46:29.039Z,16.08
2022-10-18T14:49:02.194Z,16.02
2022-10-18T14:51:35.265Z,15.94
2022-10-18T14:54:02.570Z,15.91
2022-10-18T14:56:31.638Z,15.85
2022-10-18T14:59:02.477Z,15.82
2022-10-18T15:01:32.279Z,15.85
2022-10-18T15:04:01.154Z,15.82
2022-10-18T15:06:28.042Z,15.81
2022-10-18T15:08:57.918Z,15.81
2022-10-18T15:11:25.927Z,15.78
2022-10-18T15:13:56.780Z,15.76
2022-10-18T15:16:26.974Z,15.77
2022-10-18T15:19:06.094Z,15.70
2022-10-18T15:21:35.014Z,15.66
2022-10-18T15:24:27.022Z,15.54
2022-10-18T15:27:01.212Z,15.48
2022-10-18T15:29:33.219Z,15.42
2022-10-18T15:32:13.713Z,15.39
2022-10-18T15:34:40.413Z,15.36
2022-10-18T15:37:25.812Z,15.30
2022-10-18T15:40:18.555Z,15.22
2022-10-18T15:42:45.577Z,15.19
2022-10-18T15:45:24.599Z,15.16
2022-10-18T15:48:01.553Z,15.08
2022-10-18T15:50:47.596Z,15.02
2022-10-18T15:53:33.026Z,14.99
2022-10-18T15:56:07.629Z,14.98
2022-10-18T15:58:45.859Z,14.94
2022-10-18T16:01:22.620Z,14.90
2022-10-18T16:03:51.651Z,14.87
2022-10-18T16:06:18.583Z,14.84
2022-10-18T16:08:51.117Z,14.79
2022-10-18T16:11:22.842Z,14.73
2022-10-18T16:13:51.052Z,14.69
2022-10-18T16:16:22.304Z,14.63
2022-10-18T16:18:49.893Z,14.57
2022-10-18T16:21:24.745Z,14.55
2022-10-18T16:23:51.743Z,14.51
2022-10-18T16:26:19.117Z,14.45
2022-10-18T16:28:46.648Z,14.39
2022-10-18T16:31:17.508Z,14.36
2022-10-18T16:33:44.913Z,14.32
2022-10-18T16:36:16.614Z,14.28
2022-10-18T16:38:44.679Z,14.19
2022-10-18T16:41:13.407Z,14.17
2022-10-18T16:43:40.112Z,14.10
2022-10-18T16:46:07.999Z,14.09
2022-10-18T16:48:34.836Z,14.06
2022-10-18T16:51:02.025Z,14.01
2022-10-18T16:53:28.845Z,13.97
2022-10-18T16:56:01.078Z,13.97
2022-10-18T16:58:29.682Z,13.94
2022-10-18T17:00:57.190Z,13.89
2022-10-18T17:03:24.590Z,13.87
2022-10-18T17:05:51.305Z,13.87
2022-10-18T17:08:24.412Z,13.82
2022-10-18T17:10:53.694Z,13.78
2022-10-18T17:13:21.479Z,13.76
2022-10-18T17:15:49.069Z,13.77
2022-10-18T17:18:19.155Z,13.73
2022-10-18T17:20:46.368Z,13.71
2022-10-18T17:23:13.386Z,13.68
2022-10-18T17:25:57.365Z,13.63
2022-10-18T17:28:30.722Z,13.65
2022-10-18T17:30:57.400Z,13.65
2022-10-18T17:33:24.040Z,13.66
2022-10-18T17:35:50.659Z,13.64
2022-10-18T17:38:17.350Z,13.62
2022-10-18T17:40:44.158Z,13.61
2022-10-18T17:43:13.381Z,13.58
2022-10-18T17:45:51.039Z,13.54
2022-10-18T17:48:18.065Z,13.53
2022-10-18T17:50:44.947Z,13.51
2022-10-18T17:53:13.109Z,13.49
2022-10-18T17:55:40.439Z,13.49
2022-10-18T17:58:07.073Z,13.50
2022-10-18T18:00:33.811Z,13.47
2022-10-18T18:03:00.892Z,13.48
2022-10-18T18:05:32.771Z,13.42
2022-10-18T18:08:03.714Z,13.39
2022-10-18T18:10:33.463Z,13.35
2022-10-18T18:13:00.982Z,13.35
2022-10-18T18:15:28.170Z,13.36
2022-10-18T18:17:57.392Z,13.34
2022-10-18T18:20:25.523Z,13.32
2022-10-18T18:22:52.304Z,13.29
2022-10-18T18:25:19.048Z,13.29
2022-10-18T18:27:45.799Z,13.26
2022-10-18T18:30:12.735Z,13.24
2022-10-18T18:32:39.610Z,13.21
2022-10-18T18:35:06.613Z,13.16
2022-10-18T18:37:33.273Z,13.09
2022-10-18T18:39:59.978Z,13.05
2022-10-18T18:42:26.687Z,13.05
2022-10-18T18:44:53.311Z,12.96
2022-10-18T18:47:21.983Z,12.91
2022-10-18T18:49:48.902Z,12.88
2022-10-18T18:52:15.794Z,12.84
2022-10-18T18:54:42.466Z,12.78
2022-10-18T18:57:09.075Z,12.75
2022-10-18T18:59:35.747Z,12.75
2022-10-18T19:02:02.335Z,12.75
2022-10-18T19:04:29.193Z,12.72
2022-10-18T19:06:56.363Z,12.73
2022-10-18T19:09:23.168Z,12.71
2022-10-18T19:11:55.383Z,12.75
2022-10-18T19:14:25.054Z,12.70
2022-10-18T19:16:57.507Z,12.63
2022-10-18T19:19:26.364Z,12.62
2022-10-18T19:21:55.704Z,12.58
2022-10-18T19:24:23.933Z,12.58
2022-10-18T19:26:51.714Z,12.53
2022-10-18T19:29:24.838Z,12.49
2022-10-18T19:31:54.534Z,12.45
2022-10-18T19:34:23.410Z,12.38
2022-10-18T19:36:50.973Z,12.35
2022-10-18T19:39:22.311Z,12.33
2022-10-18T19:41:51.014Z,12.29
2022-10-18T19:44:19.712Z,12.28
2022-10-18T19:46:46.710Z,12.26
2022-10-18T19:49:13.369Z,12.18
2022-10-18T19:51:40.382Z,12.18
2022-10-18T19:54:07.182Z,12.22
2022-10-18T19:56:33.914Z,12.20
2022-10-18T19:59:00.631Z,12.17
2022-10-18T20:01:29.010Z,12.15
2022-10-18T20:03:55.857Z,12.12
2022-10-18T20:06:22.835Z,12.09
2022-10-18T20:08:49.576Z,12.11
2022-10-18T20:11:21.481Z,12.08
2022-10-18T20:13:48.532Z,12.05
2022-10-18T20:16:17.117Z,12.01
2022-10-18T20:18:43.845Z,11.99
2022-10-18T20:21:15.287Z,11.92
2022-10-18T20:23:43.542Z,11.93
2022-10-18T20:26:18.255Z,11.89
2022-10-18T20:28:49.005Z,11.87
2022-10-18T20:31:18.460Z,11.89
2022-10-18T20:33:46.838Z,11.86
2022-10-18T20:36:16.508Z,11.86
2022-10-18T20:38:45.134Z,11.85
2022-10-18T20:41:21.770Z,11.81
2022-10-18T20:43:53.351Z,11.77
2022-10-18T20:46:20.985Z,11.76
2022-10-18T20:48:48.777Z,11.74
2022-10-18T20:51:17.106Z,11.75
2022-10-18T20:53:44.446Z,11.77
2022-10-18T20:56:17.013Z,11.79
2022-10-18T20:58:45.050Z,11.82
2022-10-18T21:01:24.906Z,11.79
2022-10-18T21:03:53.454Z,11.72
2022-10-18T21:06:26.262Z,11.72
2022-10-18T21:09:04.707Z,11.68
2022-10-18T21:11:34.619Z,11.66
2022-10-18T21:14:04.990Z,11.68
2022-10-18T21:16:35.167Z,11.56
2022-10-18T21:19:12.461Z,11.46
2022-10-18T21:21:41.451Z,11.44
2022-10-18T21:24:08.297Z,11.43
2022-10-18T21:26:35.525Z,11.39
2022-10-18T21:29:02.698Z,11.40
2022-10-18T21:31:35.287Z,11.39
2022-10-18T21:34:05.145Z,11.36
2022-10-18T21:36:34.792Z,11.34
2022-10-18T21:39:03.439Z,11.40
2022-10-18T21:41:30.923Z,11.25
2022-10-18T21:43:57.622Z,11.21
2022-10-18T21:46:27.036Z,11.18
2022-10-18T21:48:55.218Z,11.20
2022-10-18T21:51:24.297Z,11.19
2022-10-18T21:53:52.945Z,11.19
2022-10-18T21:56:22.598Z,11.17
2022-10-18T21:58:49.450Z,11.16
2022-10-18T22:01:28.067Z,11.15
2022-10-18T22:03:56.994Z,11.13
2022-10-18T22:06:24.742Z,11.14
2022-10-18T22:09:15.770Z,11.20
2022-10-18T22:11:46.053Z,11.20
2022-10-18T22:14:13.147Z,11.24
2022-10-18T22:16:39.957Z,11.26
2022-10-18T22:19:07.071Z,11.27
2022-10-18T22:21:34.294Z,11.24
2022-10-18T22:24:05.324Z,11.23
2022-10-18T22:26:37.881Z,11.27
2022-10-18T22:29:12.245Z,11.25
2022-10-18T22:31:41.041Z,11.22
2022-10-18T22:34:11.773Z,11.22
2022-10-18T22:36:38.656Z,11.22
2022-10-18T22:39:06.609Z,11.20
2022-10-18T22:41:34.918Z,11.19
2022-10-18T22:44:03.655Z,11.19
2022-10-18T22:46:31.711Z,11.22
2022-10-18T22:48:58.383Z,11.20
2022-10-18T22:51:25.198Z,11.19
2022-10-18T22:53:51.879Z,11.16
2022-10-18T22:56:20.796Z,11.16
2022-10-18T22:58:50.734Z,11.18
2022-10-18T23:01:20.655Z,11.24
2022-10-18T23:03:51.801Z,11.23
2022-10-18T23:06:24.898Z,11.27
2022-10-18T23:08:53.007Z,11.33
2022-10-18T23:11:20.166Z,11.32
2022-10-18T23:13:47.501Z,11.29
2022-10-18T23:16:14.590Z,11.32
2022-10-18T23:18:41.640Z,11.32
2022-10-18T23:21:10.831Z,11.33
2022-10-18T23:23:40.144Z,11.29
2022-10-18T23:26:15.184Z,11.32
2022-10-18T23:28:44.700Z,11.33
2022-10-18T23:31:17.978Z,11.34
2022-10-18T23:33:49.907Z,11.36
2022-10-18T23:36:17.176Z,11.36
2022-10-18T23:38:44.478Z,11.35
2022-10-18T23:41:13.737Z,11.29
2022-10-18T23:43:40.551Z,11.28
2022-10-18T23:46:08.020Z,11.23
2022-10-18T23:48:34.790Z,11.21
2022-10-18T23:51:02.307Z,11.20
2022-10-18T23:53:29.616Z,11.23
2022-10-18T23:55:58.998Z,11.24
2022-10-18T23:58:27.433Z,11.26
